Time;durP1;ratioP1;P1;durP2;ratioP2;P2;SDS_P1;SDS_P2;PMS_P1;PMS_P2;Temp;Humidity;BMP_temperature;BMP_pressure;BME280_temperature;BME280_humidity;BME280_pressure;Samples;Min_cycle;Max_cycle;Signal;HPM_P1;HPM_P2
2022/12/25 00:01:14;;;;;;;22.60;10.30;;;8.30;90.10;;;10.80;64.76;101436.22;5034976;28;20190;-53
2022/12/25 00:03:41;;;;;;;26.13;10.30;;;8.30;90.10;;;10.81;64.89;101435.25;5037004;28;20194;-51
2022/12/25 00:06:08;;;;;;;24.80;9.63;;;8.30;90.10;;;10.82;64.38;101442.16;5036956;28;20191;-52
2022/12/25 00:08:37;;;;;;;20.87;10.47;;;8.20;90.20;;;10.82;65.03;101443.97;5037102;28;20194;-52
2022/12/25 00:11:07;;;;;;;21.73;10.47;;;8.20;90.20;;;10.83;65.20;101446.44;5037958;28;20210;-52
2022/12/25 00:13:34;;;;;;;21.00;9.80;;;8.20;90.20;;;10.86;64.67;101446.09;5037969;28;20186;-53
2022/12/25 00:16:05;;;;;;;19.97;10.03;;;8.20;90.20;;;10.87;64.83;101450.41;5034250;28;20199;-53
2022/12/25 00:18:34;;;;;;;23.27;10.63;;;8.30;90.30;;;10.89;64.39;101450.22;5037041;28;20198;-54
2022/12/25 00:21:04;;;;;;;26.73;11.60;;;8.30;90.30;;;10.89;64.54;101451.06;5036909;28;20179;-55
2022/12/25 00:23:32;;;;;;;21.53;9.93;;;8.30;90.30;;;10.90;64.46;101441.38;5037303;28;20195;-54
2022/12/25 00:26:04;;;;;;;18.27;10.13;;;8.30;90.20;;;10.95;64.83;101443.50;5037031;28;20191;-51
2022/12/25 00:28:31;;;;;;;29.47;11.27;;;8.30;90.40;;;10.96;64.62;101445.19;5036915;28;20218;-51
2022/12/25 00:30:57;;;;;;;24.43;11.83;;;8.30;90.30;;;10.95;64.46;101449.63;5036417;28;20207;-53
2022/12/25 00:33:25;;;;;;;24.57;11.13;;;8.30;90.30;;;10.96;65.03;101455.72;5040704;28;20764;-51
2022/12/25 00:36:00;;;;;;;24.83;12.00;;;8.30;90.20;;;10.93;64.89;101456.03;5037673;28;20225;-53
2022/12/25 00:38:27;;;;;;;20.23;11.23;;;8.30;90.20;;;10.94;64.76;101447.13;5037085;28;20194;-54
2022/12/25 00:40:55;;;;;;;21.80;11.23;;;8.30;90.20;;;10.95;64.80;101461.94;5037403;28;20195;-51
2022/12/25 00:43:22;;;;;;;24.30;11.33;;;8.30;90.20;;;10.89;64.86;101466.88;5037029;28;20190;-53
2022/12/25 00:45:56;;;;;;;20.47;11.67;;;8.30;90.20;;;10.87;64.84;101468.84;5032093;28;20734;-54
2022/12/25 00:48:23;;;;;;;15.20;11.17;;;8.40;90.20;;;10.85;64.84;101465.53;5020012;28;20183;-51
2022/12/25 00:50:53;;;;;;;22.33;11.57;;;8.40;90.20;;;10.83;65.14;101470.16;5036709;28;20570;-52
2022/12/25 00:53:23;;;;;;;19.93;10.80;;;8.30;90.10;;;10.81;65.27;101458.94;5036619;28;20191;-55
2022/12/25 00:55:52;;;;;;;21.77;11.23;;;8.40;90.20;;;10.78;65.04;101464.53;5037167;28;20640;-52
2022/12/25 00:58:19;;;;;;;24.93;13.03;;;8.30;90.20;;;10.79;65.32;101455.63;5036486;28;20195;-51
2022/12/25 01:00:47;;;;;;;21.33;11.00;;;8.30;90.20;;;10.78;65.64;101447.91;5035778;28;20209;-51
2022/12/25 01:03:15;;;;;;;20.53;11.93;;;8.30;90.20;;;10.82;65.15;101447.41;5036757;28;20254;-53
2022/12/25 01:05:52;;;;;;;24.10;12.17;;;8.30;90.20;;;10.85;65.47;101447.13;5034269;28;20190;-53
2022/12/25 01:08:19;;;;;;;25.80;12.70;;;8.30;90.20;;;10.83;65.53;101446.44;5036169;28;20193;-53
2022/12/25 01:10:55;;;;;;;24.97;12.07;;;8.30;90.30;;;10.81;65.24;101450.22;5036462;28;20578;-55
2022/12/25 01:13:22;;;;;;;21.67;12.00;;;8.30;90.30;;;10.82;64.98;101451.84;5036666;28;20225;-52
2022/12/25 01:15:51;;;;;;;21.37;12.43;;;8.30;90.30;;;10.83;65.04;101450.88;5036047;28;20214;-54
2022/12/25 01:18:18;;;;;;;21.83;11.60;;;8.30;90.30;;;10.83;64.92;101459.63;5036053;28;20195;-53
2022/12/25 01:20:46;;;;;;;25.40;13.70;;;8.20;90.30;;;10.81;65.26;101472.13;5033765;28;20248;-54
2022/12/25 01:23:13;;;;;;;24.23;12.40;;;8.30;90.40;;;10.74;65.47;101473.69;5035332;28;20194;-52
2022/12/25 01:25:40;;;;;;;20.13;12.03;;;8.20;90.40;;;10.73;65.26;101466.81;5035883;28;20198;-52
2022/12/25 01:28:09;;;;;;;26.43;11.73;;;8.20;90.40;;;10.77;65.47;101470.75;5034960;28;20197;-55
2022/12/25 01:30:35;;;;;;;25.77;11.63;;;8.20;90.40;;;10.77;65.91;101473.41;5035633;28;20362;-54
2022/12/25 01:33:03;;;;;;;25.27;12.63;;;8.20;90.40;;;10.77;65.65;101473.41;5035566;28;20198;-53
2022/12/25 01:35:30;;;;;;;28.53;12.60;;;8.20;90.40;;;10.74;65.79;101473.69;5036199;28;20194;-56
2022/12/25 01:37:56;;;;;;;18.93;11.70;;;8.20;90.40;;;10.74;65.18;101473.69;5033608;28;20293;-51
2022/12/25 01:40:23;;;;;;;27.60;12.87;;;8.20;90.40;;;10.75;65.43;101483.25;5035336;28;20221;-52
2022/12/25 01:42:50;;;;;;;21.83;11.90;;;8.20;90.40;;;10.78;65.30;101485.59;5019672;28;20214;-52
2022/12/25 01:45:40;;;;;;;20.77;11.63;;;8.20;90.40;;;10.76;64.75;101479.66;5015792;28;20203;-52
2022/12/25 01:48:14;;;;;;;20.60;10.77;;;8.20;90.40;;;10.79;65.18;101481.97;5019464;28;20256;-51
2022/12/25 01:50:48;;;;;;;26.73;12.77;;;8.10;90.30;;;10.82;64.94;101479.03;5035157;28;20294;-51
2022/12/25 01:53:16;;;;;;;18.23;11.23;;;8.10;90.40;;;10.84;64.44;101484.94;5031047;28;20202;-51
2022/12/25 01:55:47;;;;;;;19.13;11.90;;;8.10;90.40;;;10.82;64.83;101489.56;5015410;28;20194;-52
2022/12/25 01:58:16;;;;;;;21.37;11.80;;;8.20;90.40;;;10.83;64.40;101488.59;5013608;28;20191;-51
2022/12/25 02:00:45;;;;;;;20.43;11.87;;;8.20;90.30;;;10.81;64.68;101485.28;5030128;28;20194;-51
2022/12/25 02:03:13;;;;;;;19.83;10.60;;;8.20;90.20;;;10.81;64.14;101485.28;5035249;28;20194;-53
2022/12/25 02:05:40;;;;;;;24.00;10.43;;;8.20;90.20;;;10.80;64.09;101483.63;5035571;28;20198;-52
2022/12/25 02:08:10;;;;;;;25.00;11.77;;;8.10;90.20;;;10.77;64.38;101498.91;5034569;28;20252;-53
2022/12/25 02:10:38;;;;;;;21.90;11.97;;;8.10;90.00;;;10.71;64.12;101489.84;5021691;28;20226;-52
2022/12/25 02:13:06;;;;;;;18.97;10.73;;;8.10;90.00;;;10.70;64.24;101484.72;5015593;28;20273;-51
2022/12/25 02:15:45;;;;;;;20.90;11.30;;;8.10;90.10;;;10.67;63.70;101504.28;5015635;28;20218;-52
2022/12/25 02:18:29;;;;;;;23.53;12.33;;;8.00;90.00;;;10.63;64.54;101507.38;5015076;28;20194;-51
2022/12/25 02:21:12;;;;;;;19.00;10.90;;;8.00;90.00;;;10.60;64.15;101503.25;5015264;28;20180;-53
2022/12/25 02:24:28;;;;;;;15.53;10.53;;;8.00;90.00;;;10.57;63.84;101503.56;5015651;28;20283;-54
2022/12/25 02:27:09;;;;;;;18.83;10.40;;;7.90;90.00;;;10.57;63.80;101502.75;5016928;28;20602;-54
2022/12/25 02:29:51;;;;;;;16.23;9.67;;;7.90;89.90;;;10.58;64.09;101492.06;5015536;28;20233;-52
2022/12/25 02:32:29;;;;;;;23.67;10.70;;;7.90;90.00;;;10.57;64.21;101494.84;5015107;28;20175;-53
2022/12/25 02:35:04;;;;;;;22.13;10.53;;;7.90;90.10;;;10.58;63.91;101494.69;5015989;28;20186;-54
2022/12/25 02:37:41;;;;;;;20.23;12.07;;;7.90;90.10;;;10.60;64.04;101486.66;5023756;28;20198;-54
2022/12/25 02:40:15;;;;;;;20.83;10.63;;;7.90;90.10;;;10.60;64.22;101487.44;5044416;28;20236;-55
2022/12/25 03:08:38;;;;;;;23.13;12.13;;;8.10;90.20;;;10.90;63.13;101478.22;5037706;28;20195;-54
2022/12/25 03:16:49;;;;;;;25.53;12.70;;;8.10;89.90;;;10.88;63.29;101472.31;5037797;28;20194;-52
2022/12/25 03:16:52;;;;;;;21.43;12.07;;;8.10;89.80;;;10.79;63.21;101468.00;5037982;28;20206;-53
2022/12/25 03:26:53;;;;;;;27.23;11.87;;;8.10;89.20;;;10.75;63.78;101475.38;5038172;28;20263;-52
2022/12/25 03:28:05;;;;;;;24.93;12.63;;;8.00;89.10;;;10.62;63.61;101464.47;5017517;28;20193;-54
2022/12/25 03:35:21;;;;;;;24.53;12.00;;;8.00;89.10;;;10.49;63.89;101464.03;5018432;28;20258;-52
2022/12/25 03:36:45;;;;;;;26.07;12.20;;;7.90;88.90;;;10.42;64.02;101473.53;5037256;28;20195;-53
2022/12/25 04:38:00;;;;;;;20.73;10.83;;;7.50;90.50;;;9.92;65.61;101407.59;5036417;28;20217;-52
2022/12/25 04:40:27;;;;;;;21.07;10.23;;;7.40;90.20;;;9.97;65.02;101389.53;5036867;28;20557;-54
2022/12/25 04:42:56;;;;;;;20.40;10.77;;;7.40;90.30;;;10.00;65.37;101388.41;5036908;28;20604;-55
2022/12/25 04:45:22;;;;;;;22.83;11.20;;;7.40;90.30;;;10.01;65.37;101384.78;5035989;28;20199;-52
2022/12/25 04:47:49;;;;;;;19.37;11.50;;;7.40;90.30;;;10.00;65.28;101388.41;5020798;28;20530;-53
2022/12/25 04:50:16;;;;;;;17.97;10.23;;;7.40;90.30;;;9.98;65.17;101385.91;5037842;28;20224;-53
2022/12/25 04:52:43;;;;;;;22.53;11.17;;;7.40;90.30;;;9.95;65.50;101401.19;5037824;28;20207;-52
2022/12/25 04:55:10;;;;;;;21.87;10.70;;;7.40;90.30;;;9.94;65.29;101404.78;5037971;28;20562;-54
2022/12/25 04:57:38;;;;;;;26.50;11.47;;;7.40;90.30;;;9.94;65.27;101400.34;5038379;28;20195;-54
2022/12/25 05:00:08;;;;;;;18.80;10.77;;;7.40;90.30;;;9.96;65.33;101397.59;5026769;28;20215;-53
2022/12/25 05:02:35;;;;;;;19.53;10.40;;;7.40;90.30;;;9.92;65.49;101398.88;5017508;28;20184;-52
2022/12/25 05:05:03;;;;;;;19.17;9.87;;;7.40;90.30;;;9.87;65.85;101382.72;5017779;28;20207;-53
2022/12/25 05:07:31;;;;;;;19.20;10.13;;;7.40;90.40;;;9.89;65.62;101386.03;5022135;28;20200;-53
2022/12/25 05:09:58;;;;;;;22.60;10.80;;;7.40;90.40;;;9.85;65.37;101384.69;5037651;28;20722;-52
2022/12/25 05:12:25;;;;;;;20.10;11.30;;;7.40;90.40;;;9.84;66.09;101378.59;5037295;28;20236;-52
2022/12/25 05:14:52;;;;;;;20.00;10.07;;;7.30;90.40;;;9.80;65.94;101377.25;5036119;28;20194;-54
2022/12/25 05:17:20;;;;;;;19.93;11.07;;;7.30;90.40;;;9.79;65.44;101380.88;5037286;28;20285;-52
2022/12/25 05:19:47;;;;;;;17.33;9.60;;;7.30;90.40;;;9.82;65.56;101375.28;5036473;28;20206;-53
2022/12/25 05:22:14;;;;;;;22.87;10.43;;;7.30;90.40;;;9.84;65.80;101377.78;5035864;28;20608;-52
2022/12/25 05:24:40;;;;;;;19.07;10.17;;;7.30;90.40;;;9.85;65.55;101380.25;5036257;28;20224;-54
2022/12/25 05:27:07;;;;;;;17.73;9.70;;;7.30;90.50;;;9.93;65.64;101376.88;5036364;28;20612;-55
2022/12/25 05:29:34;;;;;;;19.97;10.77;;;7.30;90.50;;;9.97;65.43;101388.72;5035934;28;20210;-52
2022/12/25 05:32:01;;;;;;;22.37;9.97;;;7.30;90.60;;;9.99;65.45;101387.56;5035964;28;20214;-53
2022/12/25 05:34:30;;;;;;;18.97;10.30;;;7.30;90.60;;;10.07;65.57;101386.81;5036836;28;20195;-53
2022/12/25 05:36:57;;;;;;;21.07;10.00;;;7.30;90.70;;;10.14;65.14;101390.50;5035932;28;20240;-52
2022/12/25 05:39:24;;;;;;;17.60;9.37;;;7.40;90.80;;;10.20;65.13;101384.59;5035091;28;20268;-53
2022/12/25 05:41:50;;;;;;;15.93;8.87;;;7.40;90.80;;;10.29;65.31;101378.44;5035688;28;20221;-51
2022/12/25 05:44:17;;;;;;;20.97;9.23;;;7.50;90.90;;;10.33;65.15;101379.75;5036452;28;20194;-53
2022/12/25 05:46:44;;;;;;;16.53;9.40;;;7.50;90.70;;;10.36;64.69;101379.44;5037697;28;20195;-52
2022/12/25 05:49:11;;;;;;;15.27;9.50;;;7.60;90.70;;;10.37;64.73;101373.19;5036620;28;20217;-54
2022/12/25 05:51:40;;;;;;;19.30;8.90;;;7.60;90.60;;;10.39;64.92;101384.38;5036355;28;20687;-51
2022/12/25 05:54:07;;;;;;;16.80;9.17;;;7.60;90.50;;;10.41;64.53;101392.94;5032741;28;20195;-56
2022/12/25 05:56:34;;;;;;;15.87;9.20;;;7.60;90.40;;;10.40;64.20;101375.50;5016661;28;20195;-54
2022/12/25 05:59:00;;;;;;;19.83;9.17;;;7.60;90.30;;;10.42;64.33;101380.59;5016311;28;20211;-55
2022/12/25 06:01:28;;;;;;;19.07;9.17;;;7.70;90.30;;;10.40;64.31;101386.03;5015674;28;20198;-56
2022/12/25 06:03:56;;;;;;;16.23;9.17;;;7.70;90.30;;;10.41;64.77;101387.66;5016284;28;20191;-56
2022/12/25 06:06:24;;;;;;;17.33;8.60;;;7.70;90.30;;;10.43;64.59;101385.72;5016446;28;20623;-55
2022/12/25 06:08:54;;;;;;;18.20;9.43;;;7.70;90.30;;;10.47;64.65;101383.59;5018136;28;20701;-55
2022/12/25 06:11:21;;;;;;;21.63;9.57;;;7.70;90.30;;;10.52;64.61;101379.50;5014555;28;20308;-51
2022/12/25 06:13:49;;;;;;;17.73;9.13;;;7.70;90.40;;;10.58;64.12;101375.41;5014294;28;20214;-57
2022/12/25 06:16:17;;;;;;;18.87;8.47;;;7.70;90.50;;;10.66;64.50;101376.28;5014683;28;20201;-53
2022/12/25 06:18:47;;;;;;;15.23;8.43;;;7.80;90.60;;;10.77;63.95;101378.59;5014554;28;20569;-56
2022/12/25 06:21:15;;;;;;;12.20;7.97;;;7.80;90.60;;;10.84;64.20;101378.78;5014848;28;20241;-55
2022/12/25 06:23:42;;;;;;;18.67;8.27;;;7.90;90.50;;;10.87;63.45;101383.75;5027511;28;20722;-56
2022/12/25 06:26:14;;;;;;;16.90;8.23;;;7.90;90.40;;;10.92;63.51;101385.88;5034567;28;20197;-56
2022/12/25 06:28:41;;;;;;;13.03;7.27;;;8.00;90.30;;;10.97;63.52;101384.44;5034210;28;20206;-54
2022/12/25 06:31:11;;;;;;;16.20;8.07;;;8.10;90.30;;;11.00;63.76;101383.28;5034785;28;20190;-54
2022/12/25 06:33:38;;;;;;;14.50;7.73;;;8.10;90.30;;;11.04;63.30;101371.44;5033606;28;20191;-53
2022/12/25 06:36:08;;;;;;;16.27;8.37;;;8.10;90.20;;;11.05;63.07;101371.28;5032637;28;20190;-51
2022/12/25 06:38:35;;;;;;;18.57;8.47;;;8.10;90.10;;;11.04;63.32;101374.91;5034147;28;20201;-56
2022/12/25 06:41:04;;;;;;;13.23;8.07;;;8.20;90.00;;;11.02;63.46;101368.16;5033468;28;20197;-55
2022/12/25 06:43:33;;;;;;;12.27;7.87;;;8.20;89.90;;;11.04;63.10;101364.38;5033353;28;20212;-51
2022/12/25 06:46:02;;;;;;;15.40;7.73;;;8.20;90.00;;;11.05;63.60;101371.28;5033620;28;20206;-52
2022/12/25 06:48:31;;;;;;;15.60;7.17;;;8.20;90.00;;;11.07;63.39;101357.94;5031397;28;20298;-52
2022/12/25 06:50:58;;;;;;;15.97;7.60;;;8.20;90.00;;;11.10;63.59;101357.63;5013837;28;20202;-53
2022/12/25 06:53:25;;;;;;;13.10;7.33;;;8.20;90.00;;;11.15;62.92;101360.59;5013856;28;20227;-54
2022/12/25 06:55:52;;;;;;;14.47;7.27;;;8.30;90.00;;;11.18;63.12;101368.16;5014126;28;20583;-51
2022/12/25 06:58:19;;;;;;;11.40;7.30;;;8.30;90.00;;;11.18;62.98;101370.78;5013765;28;20191;-53
2022/12/25 07:00:47;;;;;;;14.43;7.43;;;8.30;90.00;;;11.20;63.01;101374.91;5028718;28;20270;-51
2022/12/25 07:03:20;;;;;;;17.13;8.33;;;8.30;90.00;;;11.18;62.95;101383.97;5032990;28;20722;-53
2022/12/25 07:05:47;;;;;;;12.87;7.57;;;8.30;89.70;;;11.15;63.00;101386.94;5033721;28;20183;-55
2022/12/25 07:08:14;;;;;;;16.47;7.27;;;8.40;89.60;;;11.16;63.41;101385.94;5033112;28;20206;-52
2022/12/25 07:10:40;;;;;;;14.53;7.20;;;8.40;89.60;;;11.16;63.34;101383.31;5033056;28;20213;-56
2022/12/25 07:13:07;;;;;;;18.77;7.97;;;8.40;89.70;;;11.15;63.56;101381.69;5032871;28;20241;-54
2022/12/25 07:15:34;;;;;;;15.00;7.87;;;8.40;89.60;;;11.04;63.27;101374.91;5032930;28;20190;-52
2022/12/25 07:18:03;;;;;;;11.77;6.83;;;8.40;89.60;;;11.05;63.84;101367.81;5014884;28;20204;-52
2022/12/25 07:20:30;;;;;;;15.20;6.37;;;8.40;89.70;;;11.12;63.77;101374.94;5030709;28;20226;-54
2022/12/25 07:22:57;;;;;;;16.00;6.87;;;8.40;89.80;;;11.20;63.37;101382.00;5032998;28;20690;-54
2022/12/25 07:25:24;;;;;;;14.87;6.80;;;8.40;90.00;;;11.26;63.86;101373.44;5033966;28;20222;-54
2022/12/25 07:27:50;;;;;;;14.40;6.80;;;8.40;90.00;;;11.32;63.14;101378.06;5036640;28;20536;-55
2022/12/25 07:30:18;;;;;;;15.43;6.10;;;8.50;90.10;;;11.39;63.26;101374.59;5031015;28;20605;-52
2022/12/25 07:32:44;;;;;;;11.17;6.37;;;8.50;90.10;;;11.46;63.12;101366.88;5016138;28;20207;-53
2022/12/25 07:35:17;;;;;;;14.90;6.27;;;8.60;90.50;;;11.50;62.91;101366.38;5032828;28;20262;-54
2022/12/25 07:37:44;;;;;;;14.70;6.20;;;8.60;90.10;;;11.52;63.37;101369.69;5036477;28;20569;-53
2022/12/25 07:40:12;;;;;;;11.20;5.97;;;8.60;90.10;;;11.54;63.13;101357.16;5037868;28;20228;-55
2022/12/25 07:42:40;;;;;;;10.93;6.20;;;8.60;90.10;;;11.61;63.08;101369.66;5036942;28;20210;-53
2022/12/25 07:45:08;;;;;;;14.17;6.53;;;8.70;90.10;;;11.62;63.28;101361.59;5020834;28;20678;-52
2022/12/25 07:47:35;;;;;;;13.57;6.10;;;8.70;90.10;;;11.64;63.11;101361.44;5016932;28;20597;-52
2022/12/25 07:50:02;;;;;;;10.37;6.03;;;8.70;90.10;;;11.67;62.87;101351.34;5036822;28;20222;-53
2022/12/25 07:52:30;;;;;;;15.60;7.20;;;8.80;90.10;;;11.72;63.22;101351.72;5036530;28;20213;-53
2022/12/25 07:55:01;;;;;;;14.57;6.57;;;8.80;90.20;;;11.79;62.99;101349.25;5036359;28;20190;-55
2022/12/25 07:57:28;;;;;;;13.67;6.77;;;8.80;90.20;;;11.84;63.31;101353.03;5036988;28;20604;-53
2022/12/25 07:59:55;;;;;;;10.57;5.70;;;8.90;90.20;;;11.91;62.91;101351.34;5034480;28;20278;-53
2022/12/25 08:02:27;;;;;;;13.37;6.63;;;8.90;90.20;;;11.97;62.78;101350.72;5036626;28;20257;-52
2022/12/25 08:04:54;;;;;;;11.83;6.10;;;8.90;90.20;;;12.00;62.86;101345.09;5036768;28;20221;-53
2022/12/25 08:07:22;;;;;;;13.63;7.33;;;9.00;90.10;;;12.00;62.59;101342.47;5037123;28;20672;-53
2022/12/25 08:09:50;;;;;;;16.27;6.47;;;9.10;90.00;;;11.97;62.51;101355.97;5036016;28;20206;-53
2022/12/25 08:12:17;;;;;;;11.40;6.33;;;9.00;89.70;;;11.93;62.74;101353.84;5035258;28;20210;-54
2022/12/25 08:14:44;;;;;;;16.17;6.00;;;9.10;89.60;;;11.88;62.81;101358.81;5036275;28;20705;-51
2022/12/25 08:17:11;;;;;;;10.73;6.10;;;9.10;89.50;;;11.86;63.14;101356.31;5036114;28;20201;-52
2022/12/25 08:19:38;;;;;;;11.23;6.30;;;9.10;89.70;;;11.82;63.06;101359.47;5035813;28;20206;-53
2022/12/25 08:22:05;;;;;;;12.33;6.47;;;9.10;89.70;;;11.80;63.44;101351.72;5036086;28;20605;-53
2022/12/25 08:24:32;;;;;;;16.97;6.07;;;9.10;89.70;;;11.81;63.05;101356.03;5033370;28;20190;-52
2022/12/25 08:27:00;;;;;;;12.17;6.87;;;9.10;89.80;;;11.85;63.22;101362.59;5035764;28;20287;-52
2022/12/25 08:29:27;;;;;;;11.00;6.07;;;9.10;89.90;;;11.83;63.15;101367.22;5036306;28;20219;-53
2022/12/25 08:31:54;;;;;;;10.53;6.03;;;9.10;89.90;;;11.82;63.45;101376.09;5035681;28;20218;-55
2022/12/25 08:34:22;;;;;;;14.17;5.97;;;9.10;89.90;;;11.84;63.25;101379.41;5036277;28;20206;-54
2022/12/25 08:36:49;;;;;;;11.00;5.50;;;9.10;90.00;;;11.84;63.08;101384.66;5035522;28;20202;-54
2022/12/25 08:39:16;;;;;;;13.37;6.60;;;9.10;90.00;;;11.88;63.58;101385.19;5024167;28;20219;-53
2022/12/25 08:41:43;;;;;;;16.10;7.03;;;9.10;90.10;;;11.87;63.23;101379.06;5016663;28;20555;-55
2022/12/25 08:44:13;;;;;;;9.83;6.07;;;9.10;90.10;;;11.90;63.09;101389.31;5015364;28;20550;-52
2022/12/25 08:46:40;;;;;;;9.00;5.37;;;9.10;90.10;;;11.94;63.48;101393.25;5014446;28;20257;-54
2022/12/25 08:49:07;;;;;;;10.90;5.40;;;9.10;90.10;;;11.98;63.42;101391.09;5027931;28;20207;-54
2022/12/25 08:51:36;;;;;;;11.43;5.80;;;9.10;90.10;;;12.00;63.14;101379.41;5036117;28;20191;-53
2022/12/25 08:54:03;;;;;;;11.83;6.30;;;9.10;90.10;;;12.05;63.17;101374.41;5016067;28;20211;-55
2022/12/25 08:56:30;;;;;;;10.73;5.70;;;9.20;90.20;;;12.08;63.27;101358.25;5015691;28;20251;-55
2022/12/25 08:58:57;;;;;;;12.23;5.93;;;9.20;90.20;;;12.11;63.39;101370.28;5015245;28;20244;-53
2022/12/25 09:01:25;;;;;;;10.07;5.90;;;9.20;90.20;;;12.15;63.00;101366.31;5014559;28;20199;-55
2022/12/25 09:03:52;;;;;;;8.73;5.20;;;9.30;90.20;;;12.21;63.19;101355.94;5014754;28;20183;-55
2022/12/25 09:06:19;;;;;;;11.00;6.10;;;9.30;90.20;;;12.21;63.00;101349.81;5023460;28;20249;-57
2022/12/25 09:08:46;;;;;;;13.73;5.77;;;9.30;90.10;;;12.22;63.04;101352.28;5018942;28;20225;-55
2022/12/25 09:11:18;;;;;;;13.73;6.03;;;9.40;90.10;;;12.26;63.33;101338.75;5018766;28;20202;-56
2022/12/25 09:13:45;;;;;;;9.63;5.60;;;9.40;90.50;;;12.30;63.00;101342.69;5034795;28;20233;-53
2022/12/25 09:16:16;;;;;;;13.47;6.50;;;9.40;90.10;;;12.33;62.85;101353.72;5033843;28;20190;-55
2022/12/25 09:18:45;;;;;;;11.47;5.27;;;9.50;90.10;;;12.32;62.97;101362.63;5035197;28;20211;-53
2022/12/25 09:21:14;;;;;;;13.37;6.93;;;9.50;90.10;;;12.29;63.10;101365.59;5032782;28;20197;-53
2022/12/25 09:23:41;;;;;;;14.53;6.23;;;9.50;90.00;;;12.30;63.17;101390.19;5014868;28;20531;-55
2022/12/25 09:26:12;;;;;;;10.10;5.73;;;9.50;89.90;;;12.26;63.19;101386.25;5014693;28;20191;-55
2022/12/25 09:28:40;;;;;;;12.70;6.17;;;9.50;89.90;;;12.26;63.37;101384.44;5013952;28;20213;-54
2022/12/25 09:31:16;;;;;;;11.53;5.77;;;9.50;90.00;;;12.28;63.37;101387.72;5028200;28;20206;-53
2022/12/25 09:33:44;;;;;;;11.97;6.07;;;9.50;90.00;;;12.30;63.43;101379.63;5033956;28;20218;-56
2022/12/25 09:36:11;;;;;;;10.77;5.83;;;9.60;90.00;;;12.32;63.27;101388.19;5021391;28;20195;-56
2022/12/25 09:38:38;;;;;;;11.90;6.30;;;9.60;90.10;;;12.32;63.20;101390.84;5013795;28;20293;-53
2022/12/25 09:41:15;;;;;;;10.67;6.13;;;9.60;90.10;;;12.31;63.55;101379.47;5014201;28;20711;-53
2022/12/25 09:43:50;;;;;;;9.93;5.53;;;9.60;90.10;;;12.32;63.30;101375.00;5014114;28;20198;-55
2022/12/25 09:46:22;;;;;;;12.57;6.67;;;9.60;90.10;;;12.34;63.29;101363.28;5014753;28;20193;-54
2022/12/25 09:49:03;;;;;;;6.63;5.47;;;9.60;90.10;;;12.31;63.40;101365.47;5024587;28;20212;-58
2022/12/25 09:51:35;;;;;;;12.60;5.77;;;9.60;90.10;;;12.30;63.57;101366.44;5033977;28;20196;-54
2022/12/25 09:54:11;;;;;;;9.33;5.00;;;9.60;90.00;;;12.28;63.47;101360.50;5033931;28;20209;-53
2022/12/25 09:56:38;;;;;;;8.90;5.83;;;9.60;90.00;;;12.31;63.55;101362.81;5033737;28;20714;-54
2022/12/25 09:59:19;;;;;;;12.80;6.60;;;9.60;90.10;;;12.30;63.53;101366.44;5033336;28;20216;-53
2022/12/25 10:02:14;;;;;;;11.43;5.93;;;9.60;90.10;;;12.29;63.67;101356.88;5033111;28;20202;-52
2022/12/25 10:05:04;;;;;;;11.10;5.80;;;9.60;90.10;;;12.29;63.49;101336.56;5034116;28;20240;-54
2022/12/25 10:07:42;;;;;;;14.70;6.10;;;9.60;90.10;;;12.29;63.52;101333.13;5034837;28;20223;-53
2022/12/25 10:10:39;;;;;;;10.60;5.40;;;9.60;90.10;;;12.27;63.92;101335.94;5016314;28;20237;-54
2022/12/25 10:13:19;;;;;;;12.00;5.20;;;9.60;90.10;;;12.33;63.74;101334.44;5015320;28;20207;-53
2022/12/25 10:16:03;;;;;;;12.37;6.17;;;9.60;90.10;;;12.36;63.35;101321.69;5012852;28;20648;-54
2022/12/25 10:19:18;;;;;;;10.77;5.90;;;9.60;90.10;;;12.35;63.72;101319.25;5013805;28;20544;-52
2022/12/25 10:21:50;;;;;;;13.10;5.83;;;9.60;90.20;;;12.32;63.78;101311.66;5008005;28;20211;-54
2022/12/25 10:24:32;;;;;;;9.80;5.63;;;9.70;90.20;;;12.32;63.72;101315.13;5013443;28;20679;-53
2022/12/25 10:27:10;;;;;;;8.67;5.73;;;9.70;90.20;;;12.33;63.97;101314.13;5023653;28;20309;-52
2022/12/25 10:29:38;;;;;;;11.63;6.10;;;9.70;90.20;;;12.34;63.94;101317.63;5033144;28;20206;-53
2022/12/25 10:32:05;;;;;;;10.93;6.00;;;9.70;90.20;;;12.38;63.68;101318.91;5033105;28;20195;-54
2022/12/25 10:34:32;;;;;;;8.20;5.60;;;9.70;90.20;;;12.42;63.82;101326.31;5033436;28;20214;-56
2022/12/25 10:37:01;;;;;;;12.20;6.50;;;9.70;90.30;;;12.43;63.68;101327.13;5033116;28;20586;-55
2022/12/25 10:39:28;;;;;;;10.47;5.33;;;9.70;90.30;;;12.44;63.77;101323.47;5032092;28;20214;-52
2022/12/25 10:42:26;;;;;;;13.07;6.60;;;9.70;90.20;;;12.42;64.09;101309.63;5032591;28;20721;-55
2022/12/25 10:44:56;;;;;;;9.77;5.63;;;9.70;90.30;;;12.47;63.81;101304.66;5033976;28;20195;-56
2022/12/25 10:47:27;;;;;;;11.53;6.33;;;9.80;90.30;;;12.44;63.84;101297.09;5033138;28;20520;-53
2022/12/25 10:49:55;;;;;;;9.33;5.43;;;9.80;90.20;;;12.47;64.11;101287.00;5033432;28;20241;-55
2022/12/25 10:52:26;;;;;;;11.07;6.27;;;9.80;90.20;;;12.50;63.60;101285.84;5033016;28;20202;-52
2022/12/25 10:54:54;;;;;;;12.40;5.70;;;9.80;90.20;;;12.52;63.68;101275.94;5033268;28;20178;-55
2022/12/25 10:57:25;;;;;;;7.17;5.33;;;9.80;90.20;;;12.53;63.84;101280.19;5020703;28;20280;-54
2022/12/25 10:59:55;;;;;;;11.63;6.60;;;9.80;90.20;;;12.57;63.76;101278.88;5021983;28;20318;-53
2022/12/25 11:02:26;;;;;;;11.23;6.37;;;9.80;90.30;;;12.60;63.63;101286.47;5032824;28;20214;-52
2022/12/25 11:05:02;;;;;;;10.37;5.67;;;9.80;90.30;;;12.61;63.50;101286.28;5030153;28;20707;-53
2022/12/25 11:07:33;;;;;;;12.83;5.93;;;9.90;90.30;;;12.67;63.67;101287.41;5036674;28;20380;-55
2022/12/25 11:10:13;;;;;;;11.40;6.07;;;9.90;90.30;;;12.71;63.63;101283.41;5037548;28;20214;-55
2022/12/25 11:12:44;;;;;;;6.70;5.03;;;9.90;90.30;;;12.74;63.37;101272.50;5035154;28;20214;-54
2022/12/25 11:15:44;;;;;;;9.47;5.27;;;9.90;90.30;;;12.73;63.20;101286.69;5036460;28;20214;-55
2022/12/25 11:18:20;;;;;;;12.27;6.60;;;9.90;90.30;;;12.76;63.26;101286.34;5036960;28;20194;-53
2022/12/25 11:20:49;;;;;;;10.80;5.73;;;10.00;89.30;;;12.81;63.08;101299.84;5036574;28;20194;-54
2022/12/25 11:23:20;;;;;;;12.13;6.30;;;10.00;89.40;;;12.84;63.19;101289.75;5036475;28;20241;-54
2022/12/25 11:25:55;;;;;;;11.73;6.80;;;10.00;89.40;;;12.86;63.05;101277.19;5036602;28;20194;-53
2022/12/25 11:28:23;;;;;;;7.03;5.50;;;10.00;89.40;;;12.90;63.09;101277.66;5035346;28;20200;-55
2022/12/25 11:30:58;;;;;;;10.10;6.80;;;10.10;89.40;;;12.90;63.18;101286.41;5028450;28;20197;-53
2022/12/25 11:33:34;;;;;;;10.80;6.10;;;10.10;89.40;;;12.92;63.11;101296.81;5015187;28;20210;-55
2022/12/25 11:36:11;;;;;;;9.70;5.23;;;10.10;89.40;;;12.93;62.98;101295.81;5016782;28;20191;-53
2022/12/25 11:38:39;;;;;;;11.73;6.10;;;10.10;89.30;;;12.96;63.15;101290.16;5016963;28;20337;-53
2022/12/25 11:41:11;;;;;;;11.57;6.03;;;10.10;89.20;;;12.97;63.09;101281.25;5016589;28;20197;-56
2022/12/25 11:43:45;;;;;;;8.17;5.73;;;10.20;89.30;;;13.00;63.00;101280.06;5016351;28;20195;-54
2022/12/25 11:46:19;;;;;;;8.93;5.53;;;10.20;89.40;;;13.04;62.92;101273.44;5017327;28;20652;-56
2022/12/25 11:48:55;;;;;;;9.10;5.50;;;10.20;89.30;;;13.09;62.92;101265.81;5018748;28;20219;-54
2022/12/25 11:51:28;;;;;;;11.40;5.53;;;10.20;89.30;;;13.15;62.84;101265.09;5017886;28;20730;-55
2022/12/25 11:54:04;;;;;;;8.97;5.80;;;10.30;89.50;;;13.19;62.63;101256.63;5025396;28;20215;-54
2022/12/25 11:56:32;;;;;;;7.50;5.47;;;10.30;89.30;;;13.19;62.71;101239.97;5024703;28;20190;-55
2022/12/25 11:59:07;;;;;;;8.83;5.47;;;10.30;89.00;;;13.18;62.54;101246.25;5024384;28;20757;-56
2022/12/25 12:01:45;;;;;;;10.23;6.20;;;10.30;88.80;;;13.14;62.55;101237.03;5040817;28;20213;-54